Time;durP1;ratioP1;P1;durP2;ratioP2;P2;SDS_P1;SDS_P2;PMS_P1;PMS_P2;Temp;Humidity;BMP_temperature;BMP_pressure;BME280_temperature;BME280_humidity;BME280_pressure;Samples;Min_cycle;Max_cycle;Signal;HPM_P1;HPM_P2
2020/12/01 00:01:47;;;;;;;23.70;17.40;;;6.20;63.70;;;;;;5134135;27;20460;-80
2020/12/01 00:04:14;;;;;;;26.83;17.60;;;6.20;64.00;;;;;;5134357;27;20475;-82
2020/12/01 00:06:40;;;;;;;25.03;17.23;;;6.20;64.30;;;;;;5134092;27;20983;-80
2020/12/01 00:09:07;;;;;;;23.97;16.67;;;6.20;64.80;;;;;;5131951;27;20463;-80
2020/12/01 00:11:34;;;;;;;27.00;19.73;;;6.20;65.60;;;;;;5134051;27;20831;-80
2020/12/01 00:14:00;;;;;;;21.90;17.80;;;6.20;65.40;;;;;;5134070;27;20983;-80
2020/12/01 00:16:28;;;;;;;26.73;18.43;;;6.20;65.40;;;;;;5132245;27;20822;-79
2020/12/01 00:18:54;;;;;;;28.13;16.53;;;6.20;66.50;;;;;;5133381;27;20455;-79
2020/12/01 00:21:21;;;;;;;27.70;17.30;;;6.20;66.20;;;;;;5134133;27;20474;-80
2020/12/01 00:23:48;;;;;;;27.70;17.27;;;6.20;66.70;;;;;;5133976;27;20446;-79
2020/12/01 00:26:16;;;;;;;29.60;17.47;;;6.20;66.60;;;;;;5133850;27;20984;-79
2020/12/01 00:28:43;;;;;;;27.17;18.43;;;6.10;66.50;;;;;;5133935;27;20451;-79
2020/12/01 00:31:10;;;;;;;26.70;18.63;;;6.00;66.90;;;;;;5133450;27;20915;-79
2020/12/01 00:33:38;;;;;;;37.20;19.37;;;6.00;67.70;;;;;;5133528;27;20506;-78
2020/12/01 00:36:05;;;;;;;29.53;18.83;;;5.90;68.20;;;;;;5133972;27;20449;-78
2020/12/01 00:38:31;;;;;;;28.70;18.87;;;5.90;69.00;;;;;;5133522;27;20461;-80
2020/12/01 00:40:58;;;;;;;23.37;19.23;;;5.80;70.20;;;;;;5131835;27;20792;-80
2020/12/01 00:43:25;;;;;;;30.30;19.60;;;5.80;71.30;;;;;;5133240;27;20456;-80
2020/12/01 00:45:51;;;;;;;28.17;19.60;;;5.80;71.90;;;;;;5133518;27;20497;-80
2020/12/01 00:48:18;;;;;;;25.10;16.80;;;5.70;72.00;;;;;;5133653;27;20453;-80
2020/12/01 00:50:46;;;;;;;24.43;17.83;;;5.70;72.50;;;;;;5133130;27;20454;-80
2020/12/01 00:53:13;;;;;;;26.10;17.73;;;5.60;72.90;;;;;;5133367;27;20855;-80
2020/12/01 00:55:40;;;;;;;27.87;18.73;;;5.60;73.30;;;;;;5133597;27;20463;-80
2020/12/01 00:58:06;;;;;;;28.10;21.40;;;5.50;74.20;;;;;;5132936;27;20461;-79
2020/12/01 01:00:33;;;;;;;29.33;18.70;;;5.40;74.70;;;;;;5133102;27;20449;-80
2020/12/01 01:03:00;;;;;;;25.93;18.30;;;5.40;75.50;;;;;;5132431;27;20517;-80
2020/12/01 01:05:27;;;;;;;22.60;16.50;;;5.40;76.00;;;;;;5133496;27;20472;-81
2020/12/01 01:07:54;;;;;;;27.47;18.03;;;5.30;76.50;;;;;;5131570;28;20445;-80
2020/12/01 01:10:24;;;;;;;23.23;17.50;;;5.30;76.90;;;;;;5133050;28;20446;-80
2020/12/01 01:12:51;;;;;;;33.43;18.57;;;5.30;77.20;;;;;;5132985;28;20511;-80
2020/12/01 01:15:18;;;;;;;23.13;17.00;;;5.30;77.20;;;;;;5133184;28;20456;-78
2020/12/01 01:17:44;;;;;;;31.33;20.90;;;5.20;77.60;;;;;;5132221;28;20464;-77
2020/12/01 01:20:12;;;;;;;26.93;18.50;;;5.20;78.00;;;;;;5134102;27;20514;-78
2020/12/01 01:22:39;;;;;;;31.80;20.40;;;5.10;78.40;;;;;;5137357;27;20517;-77
2020/12/01 01:25:07;;;;;;;27.27;18.20;;;5.10;79.30;;;;;;5137534;27;20441;-76
2020/12/01 01:27:33;;;;;;;25.80;17.57;;;5.00;79.50;;;;;;5136522;27;20505;-80
2020/12/01 01:30:00;;;;;;;29.40;17.90;;;5.10;80.00;;;;;;5137247;27;20880;-79
2020/12/01 01:32:27;;;;;;;34.90;22.90;;;5.10;80.30;;;;;;5136899;27;20457;-77
2020/12/01 01:34:53;;;;;;;24.50;17.10;;;5.00;80.00;;;;;;5135704;27;20456;-77
2020/12/01 01:37:20;;;;;;;29.87;17.03;;;5.00;80.50;;;;;;5137294;27;20794;-77
2020/12/01 01:39:47;;;;;;;25.50;19.23;;;5.10;81.00;;;;;;5136632;27;20462;-78
2020/12/01 01:44:59;;;;;;;23.27;17.93;;;5.10;81.00;;;;;;5136776;27;20444;-79
2020/12/01 01:47:28;;;;;;;28.67;18.43;;;5.20;82.00;;;;;;5124276;27;20828;-79
2020/12/01 01:49:59;;;;;;;27.47;18.97;;;5.20;80.90;;;;;;5136846;27;20441;-79
2020/12/01 01:52:29;;;;;;;27.43;18.57;;;5.20;80.70;;;;;;5136440;27;20442;-80
2020/12/01 01:55:01;;;;;;;28.80;17.27;;;5.20;80.70;;;;;;5136417;27;20959;-80
2020/12/01 01:57:30;;;;;;;29.97;17.27;;;5.20;80.50;;;;;;5136298;27;20461;-79
2020/12/01 01:59:58;;;;;;;27.97;18.50;;;5.30;80.70;;;;;;5136546;27;20454;-78
2020/12/01 02:02:24;;;;;;;28.57;18.43;;;5.30;80.50;;;;;;5134409;27;20450;-79
2020/12/01 02:04:51;;;;;;;26.07;17.50;;;5.30;80.30;;;;;;5136255;27;20848;-80
2020/12/01 02:07:19;;;;;;;28.33;19.80;;;5.30;80.30;;;;;;5136462;27;20483;-78
2020/12/01 02:09:51;;;;;;;32.20;19.33;;;5.30;80.70;;;;;;5136735;27;20445;-79
2020/12/01 02:12:20;;;;;;;32.70;18.30;;;5.30;80.50;;;;;;5135943;27;20535;-79
2020/12/01 02:14:54;;;;;;;24.70;18.17;;;5.40;80.70;;;;;;5136453;27;20449;-78
2020/12/01 02:17:24;;;;;;;28.53;19.20;;;5.40;80.80;;;;;;5122678;27;20457;-79
2020/12/01 02:19:53;;;;;;;30.73;19.20;;;5.50;81.10;;;;;;5136413;27;20949;-79
2020/12/01 02:22:22;;;;;;;25.90;17.50;;;5.50;80.70;;;;;;5135185;27;20450;-78
2020/12/01 02:24:50;;;;;;;28.07;17.90;;;5.50;80.70;;;;;;5136228;27;20877;-79
2020/12/01 02:27:21;;;;;;;25.47;16.90;;;5.50;80.70;;;;;;5134107;27;20482;-78
2020/12/01 02:29:50;;;;;;;30.53;18.70;;;5.50;80.60;;;;;;5136420;27;20441;-79
2020/12/01 02:32:18;;;;;;;29.20;19.40;;;5.60;80.40;;;;;;5134823;27;20511;-79
2020/12/01 02:34:47;;;;;;;27.10;18.40;;;5.70;80.10;;;;;;5136343;27;20451;-79
2020/12/01 02:37:17;;;;;;;36.87;17.83;;;5.70;80.00;;;;;;5135963;27;20450;-80
2020/12/01 02:39:44;;;;;;;33.87;19.03;;;5.80;80.10;;;;;;5135693;27;20453;-79
2020/12/01 02:42:15;;;;;;;31.60;19.10;;;5.80;79.60;;;;;;5135500;27;20452;-82
2020/12/01 02:44:43;;;;;;;27.60;18.50;;;5.80;79.50;;;;;;5135243;27;20464;-78
2020/12/01 02:47:10;;;;;;;25.67;17.63;;;5.80;79.60;;;;;;5135644;27;20511;-78
2020/12/01 02:49:37;;;;;;;31.77;19.37;;;5.80;79.60;;;;;;5136172;27;20463;-78
2020/12/01 02:52:05;;;;;;;27.33;18.73;;;5.80;79.60;;;;;;5135880;27;20434;-78
2020/12/01 02:54:31;;;;;;;30.40;17.30;;;5.80;79.80;;;;;;5130433;27;20450;-78
2020/12/01 02:56:58;;;;;;;29.20;18.70;;;5.80;79.70;;;;;;5135952;27;20855;-78
2020/12/01 02:59:25;;;;;;;31.40;19.73;;;5.80;79.80;;;;;;5135249;27;20955;-78
2020/12/01 03:01:53;;;;;;;23.27;15.53;;;5.80;79.80;;;;;;5135403;27;20452;-78
2020/12/01 03:04:19;;;;;;;23.57;16.83;;;5.70;79.40;;;;;;5136896;27;20481;-78
2020/12/01 03:06:46;;;;;;;23.80;16.00;;;5.70;79.60;;;;;;5155315;27;20490;-78
2020/12/01 03:09:14;;;;;;;27.20;17.37;;;5.70;80.00;;;;;;5134811;27;20456;-78
2020/12/01 03:11:41;;;;;;;25.53;16.70;;;5.60;80.30;;;;;;5134973;27;20458;-78
2020/12/01 03:14:08;;;;;;;27.27;16.77;;;5.60;80.80;;;;;;5135156;27;20458;-78
2020/12/01 03:16:34;;;;;;;28.57;17.13;;;5.50;81.10;;;;;;5134667;27;20921;-78
2020/12/01 03:19:02;;;;;;;19.57;14.90;;;5.50;81.50;;;;;;5134470;27;20438;-78
2020/12/01 03:21:28;;;;;;;25.83;16.70;;;5.50;81.60;;;;;;5133059;27;20458;-78
2020/12/01 03:23:55;;;;;;;23.70;16.03;;;5.50;81.70;;;;;;5134215;27;20459;-78
2020/12/01 03:26:22;;;;;;;24.30;16.80;;;5.50;81.70;;;;;;5133530;27;21016;-78
2020/12/01 03:28:48;;;;;;;24.50;15.73;;;5.50;81.80;;;;;;5134675;27;20498;-80
2020/12/01 03:31:21;;;;;;;21.23;13.90;;;5.50;81.70;;;;;;5134464;27;20458;-80
2020/12/01 03:33:48;;;;;;;22.87;14.50;;;5.50;81.90;;;;;;5134188;27;20459;-80
2020/12/01 03:36:16;;;;;;;25.07;16.97;;;5.50;82.30;;;;;;5134463;27;20458;-80
2020/12/01 03:38:43;;;;;;;19.13;13.87;;;5.50;83.40;;;;;;5134504;27;20450;-80
2020/12/01 03:41:10;;;;;;;23.80;15.03;;;5.50;82.90;;;;;;5134252;27;20950;-80
2020/12/01 03:43:37;;;;;;;21.03;15.03;;;5.50;83.00;;;;;;5134434;27;20510;-80
2020/12/01 03:46:04;;;;;;;24.07;15.80;;;5.50;83.20;;;;;;5134357;27;20994;-80
2020/12/01 03:48:31;;;;;;;19.43;14.40;;;5.50;83.40;;;;;;5132449;27;20440;-80
2020/12/01 03:50:58;;;;;;;32.50;15.47;;;5.50;83.30;;;;;;5134286;27;20456;-80
2020/12/01 03:53:26;;;;;;;25.27;15.87;;;5.50;83.40;;;;;;5134256;27;20449;-80
2020/12/01 03:55:52;;;;;;;24.00;16.77;;;5.50;83.60;;;;;;5134609;27;20445;-80
2020/12/01 03:58:19;;;;;;;25.10;15.90;;;5.60;83.90;;;;;;5133819;27;20463;-80
2020/12/01 04:00:46;;;;;;;28.23;17.07;;;5.60;83.90;;;;;;5134091;27;20460;-80
2020/12/01 04:03:13;;;;;;;30.13;16.93;;;5.70;84.10;;;;;;5133801;27;20476;-81
2020/12/01 04:05:40;;;;;;;29.43;16.00;;;5.70;84.20;;;;;;5134454;27;20464;-80
2020/12/01 04:08:09;;;;;;;23.60;14.63;;;5.70;84.20;;;;;;5133746;27;20813;-80
2020/12/01 04:10:36;;;;;;;20.50;15.47;;;5.70;84.10;;;;;;5133812;27;20896;-79
2020/12/01 04:13:03;;;;;;;29.60;16.00;;;5.70;84.90;;;;;;5133834;27;20462;-79
2020/12/01 04:15:30;;;;;;;20.20;14.30;;;5.80;84.50;;;;;;5132523;27;20447;-79
2020/12/01 04:17:57;;;;;;;22.80;15.03;;;5.80;84.30;;;;;;5133730;27;20449;-79
2020/12/01 04:20:23;;;;;;;23.30;14.93;;;5.70;83.80;;;;;;5133253;27;20817;-78
2020/12/01 04:22:50;;;;;;;21.60;15.47;;;5.70;84.20;;;;;;5133775;27;20956;-78
2020/12/01 04:25:19;;;;;;;26.70;15.57;;;5.70;84.30;;;;;;5133554;27;20446;-78
2020/12/01 04:27:47;;;;;;;27.23;16.03;;;5.80;84.60;;;;;;5133627;27;20497;-79
2020/12/01 04:30:14;;;;;;;24.87;16.10;;;5.80;84.70;;;;;;5130326;27;20452;-79
2020/12/01 04:32:40;;;;;;;26.30;17.90;;;5.80;84.80;;;;;;5132794;27;20456;-80
2020/12/01 04:35:07;;;;;;;24.20;15.60;;;5.80;84.80;;;;;;5133522;27;20818;-80
2020/12/01 04:37:34;;;;;;;22.23;14.70;;;5.80;84.70;;;;;;5134052;27;20475;-80
2020/12/01 04:40:01;;;;;;;26.30;17.47;;;5.80;84.40;;;;;;5133350;27;20449;-79
2020/12/01 04:42:29;;;;;;;27.03;18.03;;;5.80;84.40;;;;;;5132048;27;20457;-79
2020/12/01 04:45:04;;;;;;;27.40;17.53;;;5.80;84.70;;;;;;5133335;27;20476;-79
2020/12/01 04:47:34;;;;;;;30.00;15.70;;;5.90;85.00;;;;;;5132720;27;20491;-80
2020/12/01 04:50:05;;;;;;;22.60;16.40;;;5.90;85.20;;;;;;5133188;27;20461;-80
2020/12/01 04:53:05;;;;;;;25.53;16.80;;;5.90;85.40;;;;;;5133194;27;21025;-80
2020/12/01 04:55:55;;;;;;;23.23;15.90;;;5.90;85.20;;;;;;5132647;27;20862;-79
2020/12/01 04:58:54;;;;;;;25.40;17.10;;;5.90;84.50;;;;;;5132292;27;20666;-78
2020/12/01 05:01:45;;;;;;;24.40;15.67;;;5.90;84.50;;;;;;5133329;27;20455;-77
2020/12/01 05:04:17;;;;;;;30.87;15.53;;;5.90;84.30;;;;;;5133320;27;20482;-78
2020/12/01 05:07:00;;;;;;;20.17;15.40;;;5.90;84.50;;;;;;5132812;27;20983;-78
2020/12/01 05:09:35;;;;;;;23.37;15.13;;;6.00;84.70;;;;;;5132304;28;21112;-78
2020/12/01 05:12:06;;;;;;;27.90;15.60;;;6.00;84.90;;;;;;5133334;28;20466;-78
2020/12/01 05:14:37;;;;;;;21.20;14.60;;;6.10;85.20;;;;;;5132733;28;20494;-79
2020/12/01 05:17:50;;;;;;;25.00;17.20;;;6.10;85.10;;;;;;5127563;28;20510;-78
2020/12/01 05:20:17;;;;;;;23.87;14.40;;;6.10;85.00;;;;;;5130135;28;20482;-79
2020/12/01 05:22:49;;;;;;;24.90;16.10;;;6.10;85.00;;;;;;5133404;28;20957;-78
2020/12/01 05:25:24;;;;;;;21.63;14.13;;;6.10;85.30;;;;;;5133091;28;20480;-78
2020/12/01 05:28:01;;;;;;;21.80;15.47;;;6.20;85.50;;;;;;5132390;28;20482;-79
2020/12/01 05:30:27;;;;;;;19.07;12.43;;;6.20;85.60;;;;;;5132607;28;20460;-78
2020/12/01 05:32:59;;;;;;;23.17;15.20;;;6.10;85.20;;;;;;5132722;28;20458;-79
2020/12/01 05:35:28;;;;;;;20.23;13.77;;;6.20;85.30;;;;;;5131304;28;20445;-79
2020/12/01 05:37:59;;;;;;;26.77;16.30;;;6.20;85.30;;;;;;5132601;28;20848;-79
2020/12/01 05:40:27;;;;;;;17.40;12.70;;;6.20;85.10;;;;;;5131743;28;20812;-78
2020/12/01 05:42:55;;;;;;;21.37;13.87;;;6.20;85.00;;;;;;5132144;28;20457;-79
2020/12/01 05:45:29;;;;;;;18.20;13.73;;;6.20;84.80;;;;;;5132651;28;20452;-79
2020/12/01 05:48:17;;;;;;;23.23;13.10;;;6.20;84.50;;;;;;5132211;28;20480;-79
2020/12/01 05:50:53;;;;;;;17.10;13.00;;;6.20;84.40;;;;;;5132877;28;20442;-78
2020/12/01 05:53:20;;;;;;;28.40;14.50;;;6.20;84.70;;;;;;5131876;28;20544;-79
2020/12/01 05:55:59;;;;;;;22.70;13.97;;;6.20;85.00;;;;;;5127379;28;20458;-78
2020/12/01 05:58:37;;;;;;;22.63;13.10;;;6.30;85.50;;;;;;5132225;28;20460;-78
2020/12/01 06:01:04;;;;;;;17.73;12.87;;;6.30;85.50;;;;;;5130822;28;20459;-79
2020/12/01 06:03:49;;;;;;;20.93;13.80;;;6.30;85.30;;;;;;5132226;28;20562;-79
2020/12/01 06:06:16;;;;;;;21.17;13.60;;;6.40;85.50;;;;;;5133165;27;20530;-80
2020/12/01 06:08:48;;;;;;;25.60;14.97;;;6.40;85.50;;;;;;5136663;27;20453;-78
2020/12/01 06:11:26;;;;;;;23.47;13.70;;;6.40;85.70;;;;;;5136572;27;20469;-79
2020/12/01 06:13:59;;;;;;;19.47;12.83;;;6.40;86.30;;;;;;5136206;27;20453;-79
2020/12/01 06:16:42;;;;;;;22.40;13.80;;;6.40;85.80;;;;;;5136441;27;20444;-79
2020/12/01 06:19:26;;;;;;;20.60;13.10;;;6.40;86.00;;;;;;5135851;27;20458;-79
2020/12/01 06:22:26;;;;;;;28.73;15.03;;;6.40;86.00;;;;;;5136737;27;20452;-78
2020/12/01 06:25:14;;;;;;;22.53;13.73;;;6.50;86.30;;;;;;5136142;27;20459;-79
2020/12/01 06:28:14;;;;;;;20.80;14.07;;;6.50;86.10;;;;;;5134402;27;20585;-76
2020/12/01 06:31:17;;;;;;;24.60;15.93;;;6.50;86.00;;;;;;5092573;28;20453;-80
2020/12/01 06:34:01;;;;;;;20.77;15.50;;;6.50;86.10;;;;;;5134828;27;20508;-79
2020/12/01 06:37:19;;;;;;;23.53;16.37;;;6.50;86.20;;;;;;5135863;27;20454;-79
2020/12/01 06:39:49;;;;;;;19.30;14.27;;;6.50;86.30;;;;;;5052521;28;20565;-81
2020/12/01 06:42:21;;;;;;;25.93;16.87;;;6.60;86.40;;;;;;5051692;28;20500;-80
2020/12/01 06:44:58;;;;;;;27.50;17.37;;;6.60;86.40;;;;;;5094026;27;20439;-81
2020/12/01 06:47:28;;;;;;;28.73;17.27;;;6.60;86.20;;;;;;5132892;27;20498;-79
2020/12/01 06:49:58;;;;;;;21.63;14.53;;;6.60;86.30;;;;;;5132604;27;20826;-78
2020/12/01 06:52:26;;;;;;;22.87;15.60;;;6.60;86.30;;;;;;5135736;27;20467;-78
2020/12/01 06:54:56;;;;;;;22.10;15.97;;;6.60;86.50;;;;;;5133563;27;20863;-77
2020/12/01 06:57:27;;;;;;;23.03;15.23;;;6.60;86.50;;;;;;5134241;27;20478;-79
2020/12/01 06:59:54;;;;;;;21.20;15.40;;;6.60;86.50;;;;;;5134192;27;20457;-78
2020/12/01 07:02:26;;;;;;;23.90;15.80;;;6.60;86.60;;;;;;5135172;27;20874;-78
2020/12/01 07:05:10;;;;;;;22.13;14.50;;;6.70;86.80;;;;;;5134950;27;20479;-81
2020/12/01 07:07:40;;;;;;;26.13;16.50;;;6.70;86.60;;;;;;5134497;27;20498;-78
2020/12/01 07:10:21;;;;;;;20.70;15.93;;;6.70;86.60;;;;;;5134873;27;20451;-80
2020/12/01 07:12:51;;;;;;;18.30;13.33;;;6.70;86.50;;;;;;5120308;27;20446;-80
2020/12/01 07:15:28;;;;;;;24.40;16.43;;;6.70;86.60;;;;;;5135033;27;20976;-79
2020/12/01 07:18:02;;;;;;;25.10;15.53;;;6.70;86.60;;;;;;5134140;27;20874;-79
2020/12/01 07:20:36;;;;;;;23.00;15.57;;;6.70;86.60;;;;;;5132514;27;20575;-79
2020/12/01 07:23:13;;;;;;;22.43;15.70;;;6.70;86.70;;;;;;5134720;27;20464;-79
2020/12/01 07:25:50;;;;;;;22.63;14.73;;;6.70;86.70;;;;;;5134556;27;20453;-78
2020/12/01 07:28:25;;;;;;;25.40;14.77;;;6.70;86.70;;;;;;5134605;27;20446;-79
2020/12/01 07:30:56;;;;;;;23.83;15.97;;;6.70;86.80;;;;;;5133995;27;20448;-77
2020/12/01 07:33:27;;;;;;;21.90;14.40;;;6.70;86.90;;;;;;5133534;27;20976;-77
2020/12/01 07:35:58;;;;;;;24.23;14.07;;;6.70;86.70;;;;;;5125836;27;20954;-77
2020/12/01 07:38:35;;;;;;;27.43;16.80;;;6.70;86.70;;;;;;5135681;27;20453;-80
2020/12/01 07:41:22;;;;;;;26.70;16.00;;;6.70;86.80;;;;;;5133762;27;20886;-78
2020/12/01 07:43:59;;;;;;;23.90;16.23;;;6.80;86.90;;;;;;5134266;27;20455;-77
2020/12/01 07:46:25;;;;;;;24.17;14.27;;;6.80;87.00;;;;;;5134486;27;20574;-77
2020/12/01 07:49:00;;;;;;;23.87;15.67;;;6.80;87.00;;;;;;5132534;27;20452;-78
2020/12/01 07:51:29;;;;;;;21.80;13.30;;;6.90;87.10;;;;;;5134420;27;20442;-77
2020/12/01 07:53:57;;;;;;;17.93;14.27;;;6.80;87.00;;;;;;5134648;27;20451;-77
2020/12/01 07:56:26;;;;;;;24.97;15.10;;;6.90;87.20;;;;;;5134389;27;20456;-78
2020/12/01 07:59:01;;;;;;;23.50;14.90;;;6.90;87.30;;;;;;5134438;27;20943;-78
2020/12/01 08:01:29;;;;;;;16.77;12.20;;;6.90;87.30;;;;;;5134354;27;20436;-77
2020/12/01 08:04:07;;;;;;;22.60;14.53;;;6.90;87.20;;;;;;5134085;27;20472;-77
2020/12/01 08:06:34;;;;;;;20.80;14.77;;;6.90;87.20;;;;;;5134266;27;20480;-78
2020/12/01 08:09:03;;;;;;;12.27;10.33;;;6.90;87.20;;;;;;5134208;27;20437;-77
2020/12/01 08:11:31;;;;;;;19.63;11.43;;;6.90;87.10;;;;;;5134249;27;20447;-78
2020/12/01 08:13:58;;;;;;;17.70;10.53;;;6.90;87.00;;;;;;5132490;27;20929;-78
2020/12/01 08:16:27;;;;;;;20.10;11.83;;;7.00;87.10;;;;;;5134090;27;20455;-78
2020/12/01 08:18:56;;;;;;;18.20;11.30;;;7.00;86.70;;;;;;5133887;27;20445;-78
2020/12/01 08:21:29;;;;;;;20.87;12.90;;;7.00;87.00;;;;;;5134038;27;20543;-78
2020/12/01 08:24:00;;;;;;;14.40;10.33;;;7.00;87.20;;;;;;5134117;27;20960;-78
2020/12/01 08:26:29;;;;;;;16.70;10.20;;;7.00;87.20;;;;;;5134404;27;20487;-77
2020/12/01 08:29:01;;;;;;;16.43;12.07;;;7.00;87.30;;;;;;5133597;27;20455;-78
2020/12/01 08:31:38;;;;;;;21.53;13.93;;;7.00;86.90;;;;;;5133991;27;20463;-78
2020/12/01 08:34:17;;;;;;;21.87;13.43;;;7.00;86.70;;;;;;5133636;27;20454;-79
2020/12/01 08:37:02;;;;;;;28.00;15.23;;;7.00;86.80;;;;;;5133679;27;20945;-78
2020/12/01 08:39:59;;;;;;;19.13;13.90;;;7.00;86.70;;;;;;5133730;27;20566;-78
2020/12/01 08:42:53;;;;;;;20.50;13.83;;;7.00;86.80;;;;;;5129645;27;20472;-78
2020/12/01 08:45:41;;;;;;;19.07;14.50;;;7.00;86.60;;;;;;5124444;27;20528;-78
2020/12/01 08:48:17;;;;;;;15.70;13.13;;;7.00;86.50;;;;;;5133293;27;20495;-78
2020/12/01 08:50:45;;;;;;;17.03;12.33;;;7.00;86.50;;;;;;5133976;27;20962;-78
2020/12/01 08:53:13;;;;;;;13.10;9.50;;;7.00;87.10;;;;;;5133550;27;20460;-78
2020/12/01 08:55:50;;;;;;;15.07;10.60;;;7.00;86.50;;;;;;5133481;27;20435;-78
2020/12/01 08:58:29;;;;;;;14.27;11.10;;;7.00;86.40;;;;;;5133435;27;20533;-78
2020/12/01 09:01:01;;;;;;;9.70;8.70;;;7.00;86.50;;;;;;5133242;27;20452;-78
2020/12/01 09:03:36;;;;;;;10.20;8.80;;;7.00;86.40;;;;;;5131475;27;20481;-79
2020/12/01 09:06:05;;;;;;;12.70;9.50;;;7.00;86.50;;;;;;5133364;27;20445;-79
2020/12/01 09:08:44;;;;;;;15.57;10.20;;;7.00;86.70;;;;;;5131579;27;20516;-79
2020/12/01 09:14:11;;;;;;;16.30;10.00;;;7.10;86.80;;;;;;5131659;28;20443;-77
2020/12/01 09:16:54;;;;;;;25.83;13.03;;;7.10;86.80;;;;;;5132540;28;20484;-77
2020/12/01 09:19:50;;;;;;;15.20;12.23;;;7.10;86.80;;;;;;5133388;28;20444;-77
2020/12/01 09:22:25;;;;;;;13.90;10.33;;;7.10;87.00;;;;;;5133163;28;20458;-77
2020/12/01 09:24:52;;;;;;;14.30;9.17;;;7.20;87.30;;;;;;5133073;28;20457;-77
2020/12/01 09:27:19;;;;;;;10.10;7.93;;;7.20;87.50;;;;;;5133120;28;21014;-77
2020/12/01 09:29:47;;;;;;;10.77;7.47;;;7.20;87.50;;;;;;5133104;28;20862;-77
2020/12/01 09:32:18;;;;;;;15.37;10.23;;;7.20;87.40;;;;;;5133159;28;20492;-77
2020/12/01 09:34:44;;;;;;;14.23;8.83;;;7.30;87.40;;;;;;5131385;28;20449;-77
2020/12/01 09:37:11;;;;;;;14.23;9.40;;;7.30;87.20;;;;;;5133206;28;20488;-77
2020/12/01 09:39:38;;;;;;;11.13;8.33;;;7.30;87.10;;;;;;5133152;28;20444;-77
2020/12/01 09:42:10;;;;;;;9.50;7.40;;;7.30;87.00;;;;;;5136172;27;20445;-77
2020/12/01 09:44:50;;;;;;;11.50;8.77;;;7.30;87.10;;;;;;5137192;27;20571;-77
2020/12/01 09:47:22;;;;;;;8.00;6.70;;;7.30;87.00;;;;;;5136971;27;20495;-77
2020/12/01 09:49:48;;;;;;;9.27;7.00;;;7.30;86.50;;;;;;5137177;27;20509;-76
2020/12/01 09:52:18;;;;;;;32.20;11.40;;;7.30;86.30;;;;;;5136948;27;21001;-76
2020/12/01 09:54:50;;;;;;;14.87;12.37;;;7.30;86.60;;;;;;5137013;27;20444;-76
2020/12/01 09:57:22;;;;;;;19.20;12.80;;;7.30;86.50;;;;;;5137037;27;20472;-77
2020/12/01 10:00:18;;;;;;;17.87;12.47;;;7.30;86.20;;;;;;5135136;27;20456;-77
2020/12/01 10:03:13;;;;;;;12.00;10.37;;;7.30;86.00;;;;;;5136568;27;20542;-76
2020/12/01 10:08:39;;;;;;;9.93;8.53;;;7.30;85.80;;;;;;5110165;27;20537;-77
2020/12/01 10:11:27;;;;;;;13.73;8.63;;;7.30;86.00;;;;;;5110258;28;20939;-77
2020/12/01 10:14:04;;;;;;;11.57;8.80;;;7.30;86.20;;;;;;5110340;28;20465;-78
2020/12/01 10:17:11;;;;;;;11.10;8.23;;;7.30;86.00;;;;;;5107874;28;20456;-78
2020/12/01 10:20:23;;;;;;;9.90;7.93;;;7.30;86.00;;;;;;5106055;28;20456;-78
2020/12/01 10:25:49;;;;;;;12.70;6.77;;;7.20;86.00;;;;;;5110115;28;20532;-78
2020/12/01 10:36:23;;;;;;;8.20;6.40;;;7.00;83.40;;;;;;5109873;28;20925;-78
2020/12/01 10:38:49;;;;;;;7.80;5.67;;;7.00;83.20;;;;;;5109865;28;20784;-77
2020/12/01 10:41:17;;;;;;;9.30;7.47;;;6.90;83.40;;;;;;5109591;28;20463;-78
2020/12/01 10:43:44;;;;;;;6.00;5.40;;;7.00;84.00;;;;;;5109459;28;20939;-77
2020/12/01 10:46:12;;;;;;;11.23;6.20;;;7.00;84.10;;;;;;5109294;28;20867;-78
2020/12/01 10:48:38;;;;;;;7.43;6.70;;;7.10;84.10;;;;;;5109589;28;20449;-77
2020/12/01 10:51:06;;;;;;;12.33;6.67;;;7.10;84.40;;;;;;5109549;28;20446;-77
2020/12/01 10:53:32;;;;;;;8.30;7.50;;;7.10;84.70;;;;;;5107917;28;20496;-78
2020/12/01 10:55:59;;;;;;;9.00;6.43;;;7.20;85.10;;;;;;5108991;28;20514;-78
2020/12/01 10:58:26;;;;;;;10.33;6.60;;;7.20;85.00;;;;;;5109063;28;20842;-78
2020/12/01 11:00:53;;;;;;;8.33;7.53;;;7.20;84.70;;;;;;5109464;28;20450;-78
2020/12/01 11:03:20;;;;;;;8.03;7.23;;;7.30;84.90;;;;;;5108927;28;20887;-78
2020/12/01 11:05:46;;;;;;;8.03;6.33;;;7.30;85.20;;;;;;5109166;28;20504;-78
2020/12/01 11:08:13;;;;;;;11.67;8.10;;;7.30;85.60;;;;;;5109016;28;20565;-78
2020/12/01 11:10:40;;;;;;;9.63;6.73;;;7.30;85.40;;;;;;5109126;28;20443;-77
2020/12/01 11:13:08;;;;;;;10.27;8.27;;;7.30;85.70;;;;;;5109282;28;20817;-78
2020/12/01 11:15:35;;;;;;;10.67;7.30;;;7.30;85.60;;;;;;5108991;28;20856;-77
2020/12/01 11:18:02;;;;;;;7.57;6.70;;;7.30;85.40;;;;;;5105964;28;20468;-78
2020/12/01 11:20:28;;;;;;;7.73;6.83;;;7.40;86.00;;;;;;5093692;28;20454;-77
2020/12/01 11:22:55;;;;;;;8.33;6.97;;;7.40;86.10;;;;;;5095397;28;20499;-78
2020/12/01 11:25:22;;;;;;;8.80;7.13;;;7.40;85.60;;;;;;5095569;28;20446;-78
2020/12/01 11:27:48;;;;;;;6.10;5.50;;;7.40;85.80;;;;;;5095123;28;20487;-77
2020/12/01 11:30:17;;;;;;;9.40;6.00;;;7.40;86.00;;;;;;5095362;28;20453;-77
2020/12/01 11:32:44;;;;;;;8.70;6.00;;;7.40;85.10;;;;;;5095555;28;20818;-76
2020/12/01 11:35:13;;;;;;;5.57;4.70;;;7.40;84.80;;;;;;5074806;28;20953;-77
2020/12/01 11:37:40;;;;;;;6.47;5.13;;;7.40;85.10;;;;;;5074922;28;20447;-77
2020/12/01 11:40:09;;;;;;;9.77;6.77;;;7.50;85.30;;;;;;5074818;28;20451;-77
2020/12/01 11:42:36;;;;;;;7.90;7.20;;;7.40;84.60;;;;;;5074818;28;20509;-77
2020/12/01 11:45:04;;;;;;;7.70;6.90;;;7.40;84.40;;;;;;5074357;28;20455;-77
2020/12/01 11:47:30;;;;;;;8.13;7.10;;;7.30;84.50;;;;;;5073929;28;20493;-77
2020/12/01 11:49:58;;;;;;;12.43;7.87;;;7.30;85.00;;;;;;5074664;28;20449;-77
2020/12/01 11:52:24;;;;;;;10.00;7.90;;;7.40;85.30;;;;;;5074680;28;20444;-78
2020/12/01 11:54:51;;;;;;;8.10;7.30;;;7.30;85.00;;;;;;5074479;28;20444;-77
2020/12/01 11:57:17;;;;;;;15.53;7.47;;;7.30;84.90;;;;;;5074455;28;20459;-77
2020/12/01 11:59:44;;;;;;;10.33;8.70;;;7.40;85.50;;;;;;5074512;28;20521;-78
2020/12/01 12:02:10;;;;;;;10.80;8.47;;;7.40;85.30;;;;;;5074131;28;20498;-78
2020/12/01 12:04:37;;;;;;;11.73;8.63;;;7.40;85.40;;;;;;5089327;28;20470;-77
2020/12/01 12:07:04;;;;;;;10.43;7.67;;;7.50;85.90;;;;;;5094375;28;20486;-77
2020/12/01 12:09:31;;;;;;;10.70;8.70;;;7.50;86.30;;;;;;5094393;28;20454;-77
2020/12/01 12:11:57;;;;;;;10.77;8.57;;;7.60;86.40;;;;;;5092608;28;20443;-77
2020/12/01 12:14:24;;;;;;;9.17;8.20;;;7.60;86.10;;;;;;5094423;28;20457;-77
2020/12/01 12:16:50;;;;;;;9.47;8.50;;;7.60;85.70;;;;;;5093874;28;20834;-77
2020/12/01 12:19:17;;;;;;;13.00;8.63;;;7.60;85.90;;;;;;5093448;28;20449;-77
2020/12/01 12:21:43;;;;;;;9.03;7.97;;;7.60;85.70;;;;;;5093904;28;20454;-77
2020/12/01 12:24:11;;;;;;;8.87;7.60;;;7.50;85.10;;;;;;5094355;28;20479;-77
2020/12/01 12:26:37;;;;;;;9.57;8.60;;;7.50;85.40;;;;;;5093908;28;20505;-77
2020/12/01 12:29:04;;;;;;;10.60;8.97;;;7.50;85.40;;;;;;5094493;28;20451;-77
2020/12/01 12:31:30;;;;;;;8.70;7.93;;;7.50;85.20;;;;;;5093373;28;20446;-77
2020/12/01 12:33:57;;;;;;;10.27;9.20;;;7.40;84.60;;;;;;5093846;28;20448;-77
2020/12/01 12:36:23;;;;;;;10.70;7.47;;;7.40;84.70;;;;;;5093968;28;20500;-78
2020/12/01 12:38:50;;;;;;;12.80;8.43;;;7.30;84.80;;;;;;5092552;28;20448;-77
2020/12/01 12:41:18;;;;;;;8.30;7.50;;;7.30;84.90;;;;;;5093858;28;20447;-76
2020/12/01 12:43:44;;;;;;;9.43;8.43;;;7.40;85.30;;;;;;5093751;28;20464;-77
2020/12/01 12:46:11;;;;;;;13.90;10.07;;;7.40;85.70;;;;;;5093857;28;20454;-77
2020/12/01 12:48:37;;;;;;;10.60;7.87;;;7.40;85.80;;;;;;5093624;28;20495;-77
2020/12/01 12:51:04;;;;;;;10.80;9.70;;;7.50;85.90;;;;;;5093764;28;20443;-77
2020/12/01 12:53:30;;;;;;;13.73;8.80;;;7.50;85.90;;;;;;5093595;28;20443;-77
2020/12/01 12:55:57;;;;;;;9.53;7.97;;;7.60;86.20;;;;;;5093770;28;20457;-77
2020/12/01 12:58:24;;;;;;;12.30;8.67;;;7.60;86.10;;;;;;5093710;28;20511;-77
2020/12/01 13:00:51;;;;;;;11.03;9.30;;;7.70;85.80;;;;;;5093622;28;20447;-76
2020/12/01 13:03:18;;;;;;;10.23;9.10;;;7.70;85.90;;;;;;5093626;28;20941;-77
2020/12/01 13:05:44;;;;;;;12.20;9.43;;;7.80;86.20;;;;;;5091778;28;20451;-77
2020/12/01 13:08:11;;;;;;;9.40;8.40;;;7.90;85.90;;;;;;5093229;28;20979;-77
2020/12/01 13:10:38;;;;;;;12.03;9.03;;;7.90;85.20;;;;;;5093603;28;20460;-77
2020/12/01 13:13:05;;;;;;;10.20;9.17;;;7.80;84.80;;;;;;5093375;28;20451;-77
2020/12/01 13:15:32;;;;;;;10.10;8.80;;;7.80;85.30;;;;;;5093469;28;20448;-76
2020/12/01 13:17:59;;;;;;;11.40;9.10;;;7.80;85.00;;;;;;5093257;28;20529;-77
2020/12/01 13:20:29;;;;;;;11.43;7.93;;;7.80;85.10;;;;;;5093009;28;20812;-77